createdAt,value
2023-05-14T00:00:22.907Z,95762.00
2023-05-14T00:01:22.580Z,95762.00
2023-05-14T00:02:22.687Z,95760.00
2023-05-14T00:03:21.697Z,95762.00
2023-05-14T00:04:21.640Z,95760.00
2023-05-14T00:05:21.613Z,95758.00
2023-05-14T00:06:21.620Z,95758.00
2023-05-14T00:07:22.582Z,95758.00
2023-05-14T00:08:21.606Z,95758.00
2023-05-14T00:09:21.590Z,95758.00
2023-05-14T00:10:21.879Z,95756.00
2023-05-14T00:11:21.625Z,95752.00
2023-05-14T00:12:22.629Z,95756.00
2023-05-14T00:13:21.650Z,95756.00
2023-05-14T00:14:22.685Z,95750.00
2023-05-14T00:15:21.704Z,95752.00
2023-05-14T00:16:22.808Z,95748.00
2023-05-14T00:17:22.856Z,95750.00
2023-05-14T00:18:22.814Z,95748.00
2023-05-14T00:19:21.850Z,95748.00
2023-05-14T00:20:23.142Z,95747.00
2023-05-14T00:21:22.898Z,95747.00
2023-05-14T00:22:21.957Z,95747.00
2023-05-14T00:23:21.944Z,95747.00
2023-05-14T00:24:21.969Z,95747.00
2023-05-14T00:25:23.008Z,95745.00
2023-05-14T00:26:22.021Z,95741.00
2023-05-14T00:27:23.013Z,95743.00
2023-05-14T00:28:22.027Z,95743.00
2023-05-14T00:29:23.030Z,95745.00
2023-05-14T00:30:22.358Z,95745.00
2023-05-14T00:31:22.074Z,95745.00
2023-05-14T00:32:23.109Z,95747.00
2023-05-14T00:33:23.020Z,95747.00
2023-05-14T00:34:23.007Z,95747.00
2023-05-14T00:35:23.016Z,95748.00
2023-05-14T00:36:23.012Z,95747.00
2023-05-14T00:37:22.011Z,95747.00
2023-05-14T00:38:22.012Z,95747.00
2023-05-14T00:39:21.989Z,95745.00
2023-05-14T00:40:23.274Z,95743.00
2023-05-14T00:41:21.980Z,95747.00
2023-05-14T00:42:21.987Z,95747.00
2023-05-14T00:43:22.982Z,95747.00
2023-05-14T00:44:22.977Z,95747.00
2023-05-14T00:45:22.974Z,95745.00
2023-05-14T00:46:22.029Z,95745.00
2023-05-14T00:47:23.010Z,95747.00
2023-05-14T00:48:21.968Z,95743.00
2023-05-14T00:49:21.946Z,95745.00
2023-05-14T00:50:23.306Z,95743.00
2023-05-14T00:51:22.964Z,95745.00
2023-05-14T00:52:22.970Z,95743.00
2023-05-14T00:53:22.961Z,95741.00
2023-05-14T00:54:21.979Z,95741.00
2023-05-14T00:55:22.965Z,95739.00
2023-05-14T00:56:22.084Z,95741.00
2023-05-14T00:57:22.029Z,95741.00
2023-05-14T00:58:22.974Z,95739.00
2023-05-14T00:59:22.971Z,95739.00
2023-05-14T01:00:23.135Z,95739.00
2023-05-14T01:01:22.062Z,95741.00
2023-05-14T01:02:21.984Z,95741.00
2023-05-14T01:03:23.065Z,95741.00
2023-05-14T01:04:21.954Z,95743.00
2023-05-14T01:05:23.010Z,95739.00
2023-05-14T01:06:21.968Z,95741.00
2023-05-14T01:07:22.960Z,95739.00
2023-05-14T01:08:21.939Z,95737.00
2023-05-14T01:09:21.926Z,95737.00
2023-05-14T01:10:22.259Z,95735.00
2023-05-14T01:11:22.912Z,95737.00
2023-05-14T01:12:22.921Z,95733.00
2023-05-14T01:13:22.928Z,95733.00
2023-05-14T01:14:21.927Z,95731.00
2023-05-14T01:15:22.914Z,95733.00
2023-05-14T01:16:21.919Z,95731.00
2023-05-14T01:17:21.903Z,95731.00
2023-05-14T01:18:21.910Z,95733.00
2023-05-14T01:19:21.913Z,95733.00
2023-05-14T01:20:23.081Z,95733.00
2023-05-14T01:21:22.895Z,95733.00
2023-05-14T01:22:22.885Z,95733.00
2023-05-14T01:23:21.885Z,95733.00
2023-05-14T01:24:22.894Z,95731.00
2023-05-14T01:25:23.162Z,95729.00
2023-05-14T01:26:21.909Z,95725.00
2023-05-14T01:27:22.858Z,95729.00
2023-05-14T01:28:22.865Z,95727.00
2023-05-14T01:29:22.903Z,95727.00
2023-05-14T01:30:23.112Z,95721.00
2023-05-14T01:31:22.860Z,95723.00
2023-05-14T01:32:22.886Z,95719.00
2023-05-14T01:33:22.850Z,95721.00
2023-05-14T01:34:22.863Z,95721.00
2023-05-14T01:35:22.920Z,95719.00
2023-05-14T01:36:22.990Z,95721.00
2023-05-14T01:37:21.908Z,95719.00
2023-05-14T01:38:22.924Z,95719.00
2023-05-14T01:39:21.905Z,95719.00
2023-05-14T01:40:22.052Z,95721.00
2023-05-14T01:41:21.908Z,95719.00
2023-05-14T01:42:21.924Z,95721.00
2023-05-14T01:43:21.957Z,95721.00
2023-05-14T01:44:21.940Z,95723.00
2023-05-14T01:45:22.890Z,95723.00
2023-05-14T01:46:22.909Z,95721.00
2023-05-14T01:47:22.903Z,95725.00
2023-05-14T01:48:22.883Z,95725.00
2023-05-14T01:49:22.889Z,95725.00
2023-05-14T01:50:23.155Z,95725.00
2023-05-14T01:51:22.908Z,95729.00
2023-05-14T01:52:22.919Z,95727.00
2023-05-14T01:53:22.907Z,95727.00
2023-05-14T01:54:21.915Z,95727.00
2023-05-14T01:55:21.970Z,95725.00
2023-05-14T01:56:22.930Z,95723.00
2023-05-14T01:57:22.942Z,95721.00
2023-05-14T01:58:22.969Z,95723.00
2023-05-14T01:59:22.932Z,95721.00
2023-05-14T02:00:23.058Z,95721.00
2023-05-14T02:01:21.959Z,95723.00
2023-05-14T02:02:22.928Z,95721.00
2023-05-14T02:03:22.930Z,95723.00
2023-05-14T02:04:22.955Z,95719.00
2023-05-14T02:05:22.923Z,95721.00
2023-05-14T02:06:22.894Z,95719.00
2023-05-14T02:07:22.880Z,95719.00
2023-05-14T02:08:21.879Z,95717.00
2023-05-14T02:09:22.895Z,95715.00
2023-05-14T02:10:23.137Z,95715.00
2023-05-14T02:11:21.896Z,95715.00
2023-05-14T02:12:21.882Z,95711.00
2023-05-14T02:13:22.880Z,95713.00
2023-05-14T02:14:21.900Z,95711.00
2023-05-14T02:15:21.882Z,95709.00
2023-05-14T02:16:22.921Z,95711.00
2023-05-14T02:17:21.876Z,95707.00
2023-05-14T02:18:22.876Z,95711.00
2023-05-14T02:19:23.088Z,95707.00
2023-05-14T02:20:22.002Z,95709.00
2023-05-14T02:21:21.860Z,95709.00
2023-05-14T02:22:22.871Z,95707.00
2023-05-14T02:23:34.209Z,95707.00
2023-05-14T02:24:22.848Z,95709.00
2023-05-14T02:25:21.853Z,95709.00
2023-05-14T02:26:21.848Z,95709.00
2023-05-14T02:27:22.822Z,95711.00
2023-05-14T02:28:21.826Z,95709.00
2023-05-14T02:29:21.820Z,95709.00
2023-05-14T02:30:23.171Z,95711.00
2023-05-14T02:31:22.850Z,95709.00
2023-05-14T02:32:21.822Z,95709.00
2023-05-14T02:33:22.892Z,95711.00
2023-05-14T02:34:22.781Z,95713.00
2023-05-14T02:35:22.762Z,95713.00
2023-05-14T02:36:21.774Z,95713.00
2023-05-14T02:37:21.772Z,95711.00
2023-05-14T02:38:21.759Z,95711.00
2023-05-14T02:39:22.746Z,95709.00
2023-05-14T02:40:22.945Z,95709.00
2023-05-14T02:41:22.720Z,95709.00
2023-05-14T02:42:22.714Z,95709.00
2023-05-14T02:43:22.714Z,95705.00
2023-05-14T02:44:21.712Z,95705.00
2023-05-14T02:45:22.684Z,95701.00
2023-05-14T02:46:22.780Z,95697.00
2023-05-14T02:47:22.724Z,95699.00
2023-05-14T02:48:22.674Z,95696.00
2023-05-14T02:49:22.663Z,95692.00
2023-05-14T02:50:22.843Z,95688.00
2023-05-14T02:51:22.667Z,95690.00
2023-05-14T02:52:22.665Z,95688.00
2023-05-14T02:53:22.646Z,95690.00
2023-05-14T02:54:21.642Z,95686.00
2023-05-14T02:55:21.636Z,95682.00
2023-05-14T02:56:22.649Z,95684.00
2023-05-14T02:57:21.616Z,95684.00
2023-05-14T02:58:26.617Z,95684.00
2023-05-14T02:59:22.610Z,95684.00
2023-05-14T03:00:22.749Z,95686.00
2023-05-14T03:01:22.652Z,95684.00
2023-05-14T03:02:22.620Z,95682.00
2023-05-14T03:03:21.615Z,95684.00
2023-05-14T03:04:22.562Z,95682.00
2023-05-14T03:05:22.548Z,95680.00
2023-05-14T03:06:22.551Z,95680.00
2023-05-14T03:07:21.541Z,95680.00
2023-05-14T03:08:22.535Z,95680.00
2023-05-14T03:09:22.560Z,95680.00
2023-05-14T03:10:22.694Z,95678.00
2023-05-14T03:11:22.503Z,95678.00
2023-05-14T03:12:22.503Z,95678.00
2023-05-14T03:13:22.496Z,95680.00
2023-05-14T03:14:21.495Z,95676.00
2023-05-14T03:15:21.483Z,95678.00
2023-05-14T03:16:22.572Z,95674.00
2023-05-14T03:17:22.477Z,95672.00
2023-05-14T03:18:21.471Z,95670.00
2023-05-14T03:19:22.453Z,95670.00
2023-05-14T03:20:21.730Z,95672.00
2023-05-14T03:21:22.447Z,95670.00
2023-05-14T03:22:22.420Z,95672.00
2023-05-14T03:23:22.449Z,95672.00
2023-05-14T03:24:21.609Z,95674.00
2023-05-14T03:25:22.405Z,95674.00
2023-05-14T03:26:22.394Z,95676.00
2023-05-14T03:27:22.381Z,95674.00
2023-05-14T03:28:22.389Z,95678.00
2023-05-14T03:29:21.375Z,95676.00
2023-05-14T03:30:22.563Z,95676.00
2023-05-14T03:31:22.385Z,95678.00
2023-05-14T03:32:21.412Z,95678.00
2023-05-14T03:33:22.347Z,95672.00
2023-05-14T03:34:22.356Z,95670.00
2023-05-14T03:35:21.333Z,95678.00
2023-05-14T03:36:21.336Z,95676.00
2023-05-14T03:37:22.325Z,95676.00
2023-05-14T03:38:22.340Z,95672.00
2023-05-14T03:39:22.319Z,95680.00
2023-05-14T03:40:22.478Z,95672.00
2023-05-14T03:41:22.305Z,95676.00
2023-05-14T03:42:22.273Z,95674.00
2023-05-14T03:43:22.269Z,95674.00
2023-05-14T03:44:21.275Z,95676.00
2023-05-14T03:45:21.263Z,95678.00
2023-05-14T03:46:22.264Z,95678.00
2023-05-14T03:47:22.349Z,95680.00
2023-05-14T03:48:22.284Z,95680.00
2023-05-14T03:49:21.249Z,95682.00
2023-05-14T03:50:22.462Z,95686.00
2023-05-14T03:51:21.232Z,95688.00
2023-05-14T03:52:21.217Z,95690.00
2023-05-14T03:53:21.227Z,95690.00
2023-05-14T03:54:22.220Z,95690.00
2023-05-14T03:55:22.203Z,95690.00
2023-05-14T03:56:22.190Z,95688.00
2023-05-14T03:57:22.187Z,95690.00
2023-05-14T03:58:21.175Z,95690.00
2023-05-14T03:59:21.167Z,95692.00
2023-05-14T04:00:22.393Z,95692.00
2023-05-14T04:01:21.173Z,95692.00
2023-05-14T04:02:21.195Z,95694.00
2023-05-14T04:04:21.205Z,95694.00
2023-05-14T04:05:21.190Z,95696.00
2023-05-14T04:07:21.147Z,95696.00
2023-05-14T04:08:22.164Z,95697.00
2023-05-14T04:09:21.148Z,95699.00
2023-05-14T04:10:22.485Z,95697.00
2023-05-14T04:11:22.154Z,95697.00
2023-05-14T04:12:22.144Z,95701.00
2023-05-14T04:13:21.139Z,95701.00
2023-05-14T04:14:21.129Z,95699.00
2023-05-14T04:15:22.159Z,95701.00
2023-05-14T04:16:21.267Z,95701.00
2023-05-14T04:17:21.134Z,95699.00
2023-05-14T04:18:21.131Z,95701.00
2023-05-14T04:19:21.112Z,95703.00
2023-05-14T04:20:22.311Z,95699.00
2023-05-14T04:21:22.130Z,95699.00
2023-05-14T04:22:21.143Z,95701.00
2023-05-14T04:23:21.100Z,95703.00
2023-05-14T04:24:22.117Z,95703.00
2023-05-14T04:25:22.107Z,95701.00
2023-05-14T04:26:21.103Z,95703.00
2023-05-14T04:27:22.117Z,95701.00
2023-05-14T04:28:22.102Z,95701.00
2023-05-14T04:29:21.098Z,95703.00
2023-05-14T04:30:21.321Z,95703.00
2023-05-14T04:31:21.111Z,95697.00
2023-05-14T04:32:21.110Z,95701.00
2023-05-14T04:33:22.083Z,95696.00
2023-05-14T04:34:22.088Z,95696.00
2023-05-14T04:35:24.124Z,95694.00
2023-05-14T04:36:22.106Z,95694.00
2023-05-14T04:37:21.124Z,95690.00
2023-05-14T04:38:22.090Z,95688.00
2023-05-14T04:39:22.050Z,95690.00
2023-05-14T04:40:22.390Z,95690.00
2023-05-14T04:41:21.055Z,95692.00
2023-05-14T04:42:21.051Z,95690.00
2023-05-14T04:43:22.027Z,95692.00
2023-05-14T04:44:21.036Z,95690.00
2023-05-14T04:45:21.023Z,95694.00
2023-05-14T04:46:22.035Z,95694.00
2023-05-14T04:47:22.015Z,95692.00
2023-05-14T04:48:22.037Z,95690.00
2023-05-14T04:49:20.973Z,95692.00
2023-05-14T04:50:22.184Z,95690.00
2023-05-14T04:51:21.962Z,95690.00
2023-05-14T04:52:21.958Z,95690.00
2023-05-14T04:53:21.956Z,95690.00
2023-05-14T04:54:22.004Z,95688.00
2023-05-14T04:55:20.938Z,95688.00
2023-05-14T04:56:21.935Z,95686.00
2023-05-14T04:57:21.931Z,95688.00
2023-05-14T04:58:21.920Z,95684.00
2023-05-14T04:59:21.926Z,95684.00
2023-05-14T05:00:22.364Z,95686.00
2023-05-14T05:01:21.277Z,95686.00
2023-05-14T05:02:20.877Z,95686.00
2023-05-14T05:03:21.004Z,95686.00
2023-05-14T05:04:21.875Z,95686.00
2023-05-14T05:05:21.903Z,95686.00
2023-05-14T05:06:20.866Z,95686.00
2023-05-14T05:07:21.865Z,95684.00
2023-05-14T05:08:21.932Z,95686.00
2023-05-14T05:09:20.849Z,95686.00
2023-05-14T05:10:22.112Z,95688.00
2023-05-14T05:11:21.832Z,95690.00
2023-05-14T05:12:21.840Z,95692.00
2023-05-14T05:13:20.835Z,95690.00
2023-05-14T05:14:21.823Z,95692.00
2023-05-14T05:15:20.804Z,95690.00
2023-05-14T05:16:20.866Z,95696.00
2023-05-14T05:17:21.838Z,95694.00
2023-05-14T05:18:21.798Z,95694.00
2023-05-14T05:19:26.531Z,95696.00
2023-05-14T05:20:21.955Z,95696.00
2023-05-14T05:21:20.772Z,95696.00
2023-05-14T05:22:21.782Z,95697.00
2023-05-14T05:23:21.747Z,95697.00
2023-05-14T05:24:21.752Z,95697.00
2023-05-14T05:25:20.767Z,95699.00
2023-05-14T05:26:20.764Z,95694.00
2023-05-14T05:27:21.743Z,95694.00
2023-05-14T05:28:20.721Z,95694.00
2023-05-14T05:29:20.715Z,95692.00
2023-05-14T05:30:21.920Z,95694.00
2023-05-14T05:31:21.763Z,95694.00
2023-05-14T05:32:21.726Z,95694.00
2023-05-14T05:33:20.691Z,95699.00
2023-05-14T05:34:20.695Z,95699.00
2023-05-14T05:35:20.676Z,95705.00
2023-05-14T05:36:21.667Z,95703.00
2023-05-14T05:37:21.665Z,95705.00
2023-05-14T05:38:21.667Z,95707.00
2023-05-14T05:39:21.670Z,95705.00
2023-05-14T05:40:21.817Z,95705.00
2023-05-14T05:41:20.626Z,95703.00
2023-05-14T05:42:20.743Z,95699.00
2023-05-14T05:43:21.620Z,95697.00
2023-05-14T05:44:21.652Z,95694.00
2023-05-14T05:45:21.602Z,95692.00
2023-05-14T05:46:20.611Z,95692.00
2023-05-14T05:47:21.621Z,95688.00
2023-05-14T05:48:21.582Z,95686.00
2023-05-14T05:49:20.600Z,95684.00
2023-05-14T05:50:20.615Z,95682.00
2023-05-14T05:51:21.778Z,95682.00
2023-05-14T05:52:20.637Z,95680.00
2023-05-14T05:53:21.624Z,95682.00
2023-05-14T05:54:20.639Z,95680.00
2023-05-14T05:55:20.672Z,95678.00
2023-05-14T05:56:20.696Z,95678.00
2023-05-14T05:57:21.709Z,95672.00
2023-05-14T05:58:21.736Z,95670.00
2023-05-14T05:59:21.764Z,95666.00
2023-05-14T06:00:21.972Z,95662.00
2023-05-14T06:01:20.741Z,95658.00
2023-05-14T06:02:21.872Z,95650.00
2023-05-14T06:03:21.820Z,95648.00
2023-05-14T06:04:20.901Z,95646.00
2023-05-14T06:05:21.905Z,95646.00
2023-05-14T06:06:21.898Z,95648.00
2023-05-14T06:07:21.886Z,95646.00
2023-05-14T06:08:20.883Z,95644.00
2023-05-14T06:09:21.899Z,95644.00
2023-05-14T06:10:20.935Z,95644.00
2023-05-14T06:11:21.956Z,95644.00
2023-05-14T06:12:20.908Z,95646.00
2023-05-14T06:13:20.942Z,95646.00
2023-05-14T06:14:20.943Z,95646.00
2023-05-14T06:15:21.909Z,95648.00
2023-05-14T06:16:21.072Z,95648.00
2023-05-14T06:17:21.974Z,95644.00
2023-05-14T06:18:21.940Z,95644.00
2023-05-14T06:19:20.980Z,95643.00
2023-05-14T06:20:20.953Z,95643.00
2023-05-14T06:21:21.922Z,95646.00
2023-05-14T06:22:21.928Z,95644.00
2023-05-14T06:23:21.938Z,95643.00
2023-05-14T06:24:21.935Z,95641.00
2023-05-14T06:25:21.924Z,95643.00
2023-05-14T06:26:21.935Z,95643.00
2023-05-14T06:27:21.924Z,95641.00
2023-05-14T06:28:21.946Z,95643.00
2023-05-14T06:29:20.983Z,95641.00
2023-05-14T06:30:22.129Z,95643.00
2023-05-14T06:31:20.967Z,95643.00
2023-05-14T06:32:22.253Z,95643.00
2023-05-14T06:33:20.934Z,95643.00
2023-05-14T06:34:20.939Z,95644.00
2023-05-14T06:35:20.960Z,95643.00
2023-05-14T06:36:21.947Z,95643.00
2023-05-14T06:37:20.984Z,95643.00
2023-05-14T06:38:21.945Z,95641.00
2023-05-14T06:39:21.953Z,95641.00
2023-05-14T06:40:21.193Z,95643.00
2023-05-14T06:41:20.959Z,95641.00
2023-05-14T06:42:21.971Z,95643.00
2023-05-14T06:43:21.984Z,95643.00
2023-05-14T06:44:21.990Z,95641.00
2023-05-14T06:45:20.992Z,95644.00
2023-05-14T06:46:21.030Z,95644.00
2023-05-14T06:47:22.185Z,95643.00
2023-05-14T06:48:21.099Z,95641.00
2023-05-14T06:49:22.026Z,95641.00
2023-05-14T06:51:21.028Z,95639.00
2023-05-14T06:52:22.053Z,95637.00
2023-05-14T06:53:21.073Z,95635.00
2023-05-14T06:54:21.109Z,95635.00
2023-05-14T06:55:21.120Z,95637.00
2023-05-14T06:56:22.083Z,95635.00
2023-05-14T06:57:22.085Z,95633.00
2023-05-14T06:58:22.077Z,95637.00
2023-05-14T06:59:21.103Z,95635.00
2023-05-14T07:00:22.234Z,95637.00
2023-05-14T07:01:21.154Z,95635.00
2023-05-14T07:02:21.162Z,95639.00
2023-05-14T07:03:21.107Z,95637.00
2023-05-14T07:04:22.148Z,95637.00
2023-05-14T07:05:21.100Z,95637.00
2023-05-14T07:06:21.134Z,95635.00
2023-05-14T07:07:22.114Z,95635.00
2023-05-14T07:08:22.098Z,95635.00
2023-05-14T07:09:21.103Z,95633.00
2023-05-14T07:10:21.193Z,95631.00
2023-05-14T07:11:22.171Z,95633.00
2023-05-14T07:12:22.114Z,95629.00
2023-05-14T07:13:22.121Z,95631.00
2023-05-14T07:14:22.101Z,95625.00
2023-05-14T07:15:22.099Z,95631.00
2023-05-14T07:16:21.082Z,95629.00
2023-05-14T07:17:22.206Z,95627.00
2023-05-14T07:18:21.164Z,95629.00
2023-05-14T07:19:21.072Z,95627.00
2023-05-14T07:20:22.239Z,95629.00
2023-05-14T07:21:21.084Z,95627.00
2023-05-14T07:22:22.093Z,95625.00
2023-05-14T07:23:22.068Z,95625.00
2023-05-14T07:24:22.108Z,95625.00
2023-05-14T07:25:22.086Z,95623.00
2023-05-14T07:26:22.059Z,95623.00
2023-05-14T07:27:22.076Z,95623.00
2023-05-14T07:28:21.055Z,95619.00
2023-05-14T07:29:22.062Z,95621.00
2023-05-14T07:30:22.222Z,95619.00
2023-05-14T07:31:22.124Z,95615.00
2023-05-14T07:32:21.055Z,95613.00
2023-05-14T07:33:22.067Z,95609.00
2023-05-14T07:34:21.163Z,95611.00
2023-05-14T07:35:22.056Z,95607.00
2023-05-14T07:36:21.061Z,95607.00
2023-05-14T07:37:22.478Z,95609.00
2023-05-14T07:38:21.112Z,95607.00
2023-05-14T07:39:21.075Z,95605.00
2023-05-14T07:40:22.246Z,95607.00
2023-05-14T07:41:21.047Z,95605.00
2023-05-14T07:42:34.493Z,95607.00
2023-05-14T07:43:22.047Z,95603.00
2023-05-14T07:44:22.013Z,95603.00
2023-05-14T07:45:20.992Z,95605.00
2023-05-14T07:46:21.986Z,95603.00
2023-05-14T07:47:21.992Z,95605.00
2023-05-14T07:48:21.130Z,95601.00
2023-05-14T07:49:21.014Z,95601.00
2023-05-14T07:50:21.099Z,95601.00
2023-05-14T07:51:21.979Z,95599.00
2023-05-14T07:52:21.976Z,95599.00
2023-05-14T07:53:21.961Z,95596.00
2023-05-14T07:54:21.948Z,95594.00
2023-05-14T07:55:20.944Z,95590.00
2023-05-14T07:56:20.933Z,95588.00
2023-05-14T07:57:21.927Z,95590.00
2023-05-14T07:58:20.919Z,95588.00
2023-05-14T07:59:20.903Z,95588.00
2023-05-14T08:00:22.060Z,95588.00
2023-05-14T08:01:20.912Z,95584.00
2023-05-14T08:02:22.013Z,95584.00
2023-05-14T08:03:21.990Z,95584.00
2023-05-14T08:04:20.952Z,95584.00
2023-05-14T08:05:21.866Z,95580.00
2023-05-14T08:06:20.904Z,95584.00
2023-05-14T08:07:21.967Z,95582.00
2023-05-14T08:08:20.856Z,95582.00
2023-05-14T08:09:21.843Z,95582.00
2023-05-14T08:10:21.897Z,95582.00
2023-05-14T08:11:20.877Z,95580.00
2023-05-14T08:12:20.897Z,95578.00
2023-05-14T08:13:21.820Z,95576.00
2023-05-14T08:14:20.818Z,95576.00
2023-05-14T08:15:21.805Z,95572.00
2023-05-14T08:16:21.818Z,95574.00
2023-05-14T08:17:20.821Z,95570.00
2023-05-14T08:18:21.796Z,95568.00
2023-05-14T08:19:21.865Z,95568.00
2023-05-14T08:20:20.854Z,95568.00
2023-05-14T08:21:21.763Z,95570.00
2023-05-14T08:22:20.795Z,95570.00
2023-05-14T08:23:21.784Z,95568.00
2023-05-14T08:24:20.764Z,95568.00
2023-05-14T08:25:20.736Z,95568.00
2023-05-14T08:26:21.746Z,95564.00
2023-05-14T08:27:21.724Z,95564.00
2023-05-14T08:28:21.728Z,95562.00
2023-05-14T08:29:21.716Z,95560.00
2023-05-14T08:30:21.994Z,95558.00
2023-05-14T08:31:20.799Z,95558.00
2023-05-14T08:32:23.665Z,95558.00
2023-05-14T08:33:20.705Z,95556.00
2023-05-14T08:34:20.698Z,95554.00
2023-05-14T08:35:20.680Z,95554.00
2023-05-14T08:36:20.693Z,95554.00
2023-05-14T08:37:21.652Z,95552.00
2023-05-14T08:38:21.698Z,95552.00
2023-05-14T08:39:20.643Z,95550.00
2023-05-14T08:40:20.660Z,95550.00
2023-05-14T08:41:20.629Z,95550.00
2023-05-14T08:42:20.675Z,95549.00
2023-05-14T08:43:20.637Z,95549.00
2023-05-14T08:44:20.609Z,95545.00
2023-05-14T08:45:21.618Z,95545.00
2023-05-14T08:46:20.604Z,95543.00
2023-05-14T08:47:21.597Z,95543.00
2023-05-14T08:48:21.603Z,95541.00
2023-05-14T08:49:21.587Z,95543.00
2023-05-14T08:50:22.874Z,95541.00
2023-05-14T08:51:20.580Z,95539.00
2023-05-14T08:52:20.569Z,95539.00
2023-05-14T08:53:21.577Z,95539.00
2023-05-14T08:54:20.570Z,95541.00
2023-05-14T08:55:21.546Z,95541.00
2023-05-14T08:56:21.557Z,95541.00
2023-05-14T08:57:21.545Z,95539.00
2023-05-14T08:58:21.528Z,95539.00
2023-05-14T08:59:20.512Z,95539.00
2023-05-14T09:00:20.521Z,95537.00
2023-05-14T09:01:20.556Z,95537.00
2023-05-14T09:02:21.549Z,95537.00
2023-05-14T09:03:21.521Z,95539.00
2023-05-14T09:04:21.500Z,95537.00
2023-05-14T09:05:20.473Z,95539.00
2023-05-14T09:06:20.468Z,95539.00
2023-05-14T09:07:21.455Z,95539.00
2023-05-14T09:08:21.903Z,95539.00
2023-05-14T09:09:21.469Z,95539.00
2023-05-14T09:10:20.468Z,95537.00
2023-05-14T09:11:21.434Z,95539.00
2023-05-14T09:12:20.469Z,95539.00
2023-05-14T09:13:21.430Z,95539.00
2023-05-14T09:14:20.419Z,95539.00
2023-05-14T09:15:20.416Z,95537.00
2023-05-14T09:16:21.423Z,95535.00
2023-05-14T09:17:20.443Z,95535.00
2023-05-14T09:18:21.390Z,95535.00
2023-05-14T09:19:21.453Z,95535.00
2023-05-14T09:20:21.430Z,95537.00
2023-05-14T09:21:20.379Z,95535.00
2023-05-14T09:22:21.365Z,95537.00
2023-05-14T09:23:21.364Z,95537.00
2023-05-14T09:24:21.355Z,95537.00
2023-05-14T09:25:20.333Z,95539.00
2023-05-14T09:26:21.364Z,95539.00
2023-05-14T09:27:20.326Z,95541.00
2023-05-14T09:28:21.311Z,95539.00
2023-05-14T09:29:20.311Z,95537.00
2023-05-14T09:30:20.309Z,95539.00
2023-05-14T09:31:20.298Z,95535.00
2023-05-14T09:32:21.297Z,95529.00
2023-05-14T09:33:21.274Z,95533.00
2023-05-14T09:34:21.263Z,95529.00
2023-05-14T09:35:20.268Z,95529.00
2023-05-14T09:36:21.258Z,95529.00
2023-05-14T09:37:21.271Z,95529.00
2023-05-14T09:38:20.244Z,95531.00
2023-05-14T09:39:21.242Z,95527.00
2023-05-14T09:40:21.330Z,95529.00
2023-05-14T09:41:21.216Z,95529.00
2023-05-14T09:42:20.238Z,95527.00
2023-05-14T09:43:20.200Z,95527.00
2023-05-14T09:44:21.240Z,95527.00
2023-05-14T09:45:20.183Z,95529.00
2023-05-14T09:46:20.233Z,95529.00
2023-05-14T09:47:20.231Z,95525.00
2023-05-14T09:48:20.222Z,95527.00
2023-05-14T09:49:21.164Z,95525.00
2023-05-14T09:50:21.260Z,95523.00
2023-05-14T09:51:21.154Z,95525.00
2023-05-14T09:52:21.153Z,95525.00
2023-05-14T09:53:21.148Z,95525.00
2023-05-14T09:54:21.146Z,95523.00
2023-05-14T09:55:20.133Z,95523.00
2023-05-14T09:56:20.146Z,95521.00
2023-05-14T09:57:21.147Z,95517.00
2023-05-14T09:58:20.185Z,95517.00
2023-05-14T09:59:21.200Z,95513.00
2023-05-14T10:00:20.251Z,95513.00
2023-05-14T10:01:20.242Z,95511.00
2023-05-14T10:02:20.201Z,95507.00
2023-05-14T10:03:21.263Z,95507.00
2023-05-14T10:04:21.319Z,95507.00
2023-05-14T10:05:21.325Z,95505.00
2023-05-14T10:06:21.355Z,95501.00
2023-05-14T10:07:20.386Z,95503.00
2023-05-14T10:08:20.922Z,95501.00
2023-05-14T10:09:21.461Z,95499.00
2023-05-14T10:10:20.531Z,95497.00
2023-05-14T10:11:20.770Z,95497.00
2023-05-14T10:12:21.567Z,95499.00
2023-05-14T10:13:20.654Z,95497.00
2023-05-14T10:14:21.682Z,95494.00
2023-05-14T10:15:21.689Z,95494.00
2023-05-14T10:16:20.837Z,95492.00
2023-05-14T10:17:21.837Z,95497.00
2023-05-14T10:18:20.881Z,95490.00
2023-05-14T10:19:22.076Z,95488.00
2023-05-14T10:20:22.181Z,95486.00
2023-05-14T10:21:20.989Z,95488.00
2023-05-14T10:22:22.023Z,95480.00
2023-05-14T10:23:21.074Z,95478.00
2023-05-14T10:24:22.062Z,95478.00
2023-05-14T10:25:21.095Z,95482.00
2023-05-14T10:26:24.005Z,95476.00
2023-05-14T10:27:22.119Z,95480.00
2023-05-14T10:28:21.144Z,95480.00
2023-05-14T10:29:22.110Z,95478.00
2023-05-14T10:30:22.345Z,95476.00
2023-05-14T10:31:22.133Z,95476.00
2023-05-14T10:32:22.075Z,95472.00
2023-05-14T10:33:21.097Z,95474.00
2023-05-14T10:34:21.079Z,95474.00
2023-05-14T10:35:21.072Z,95472.00
2023-05-14T10:36:22.069Z,95470.00
2023-05-14T10:37:21.058Z,95470.00
2023-05-14T10:38:22.081Z,95470.00
2023-05-14T10:39:21.040Z,95470.00
2023-05-14T10:40:22.239Z,95466.00
2023-05-14T10:41:22.040Z,95468.00
2023-05-14T10:42:21.005Z,95468.00
2023-05-14T10:43:21.000Z,95466.00
2023-05-14T10:44:22.003Z,95468.00
2023-05-14T10:45:22.009Z,95466.00
2023-05-14T10:46:21.055Z,95468.00
2023-05-14T10:47:20.978Z,95466.00
2023-05-14T10:48:22.037Z,95462.00
2023-05-14T10:49:32.278Z,95462.00
2023-05-14T10:50:22.112Z,95456.00
2023-05-14T10:51:21.151Z,95458.00
2023-05-14T10:52:22.049Z,95458.00
2023-05-14T10:53:21.991Z,95456.00
2023-05-14T10:54:22.502Z,95454.00
2023-05-14T10:55:20.976Z,95456.00
2023-05-14T10:56:21.970Z,95448.00
2023-05-14T10:57:20.952Z,95448.00
2023-05-14T10:58:21.976Z,95448.00
2023-05-14T10:59:21.027Z,95447.00
2023-05-14T11:00:21.143Z,95447.00
2023-05-14T11:01:21.156Z,95445.00
2023-05-14T11:02:22.272Z,95445.00
2023-05-14T11:03:22.328Z,95443.00
2023-05-14T11:04:22.339Z,95441.00
2023-05-14T11:05:22.404Z,95441.00
2023-05-14T11:06:23.399Z,95443.00
2023-05-14T11:07:21.529Z,95443.00
2023-05-14T11:08:23.951Z,95441.00
2023-05-14T11:09:21.593Z,95439.00
2023-05-14T11:10:21.993Z,95439.00
2023-05-14T11:11:22.767Z,95437.00
2023-05-14T11:12:22.562Z,95437.00
2023-05-14T11:13:21.575Z,95433.00
2023-05-14T11:14:22.555Z,95431.00
2023-05-14T11:15:22.571Z,95427.00
2023-05-14T11:16:23.709Z,95429.00
2023-05-14T11:17:21.601Z,95427.00
2023-05-14T11:18:21.684Z,95421.00
2023-05-14T11:19:22.751Z,95419.00
2023-05-14T11:20:23.103Z,95419.00
2023-05-14T11:21:22.999Z,95415.00
2023-05-14T11:22:22.914Z,95413.00
2023-05-14T11:23:22.988Z,95411.00
2023-05-14T11:24:22.028Z,95409.00
2023-05-14T11:25:23.099Z,95409.00
2023-05-14T11:26:23.157Z,95405.00
2023-05-14T11:27:22.193Z,95405.00
2023-05-14T11:28:23.280Z,95403.00
2023-05-14T11:29:23.326Z,95405.00
2023-05-14T11:30:23.715Z,95403.00
2023-05-14T11:31:23.468Z,95401.00
2023-05-14T11:32:22.501Z,95401.00
2023-05-14T11:33:23.572Z,95392.00
2023-05-14T11:34:23.652Z,95401.00
2023-05-14T11:35:23.683Z,95388.00
2023-05-14T11:36:23.732Z,95388.00
2023-05-14T11:37:22.793Z,95386.00
2023-05-14T11:38:23.875Z,95384.00
2023-05-14T11:39:22.904Z,95386.00
2023-05-14T11:40:24.167Z,95382.00
2023-05-14T11:41:23.361Z,95382.00
2023-05-14T11:42:24.092Z,95380.00
2023-05-14T11:43:24.163Z,95380.00
2023-05-14T11:44:23.217Z,95374.00
2023-05-14T11:45:24.259Z,95376.00
2023-05-14T11:46:24.387Z,95378.00
2023-05-14T11:47:24.379Z,95376.00